createdAt,value
2022-09-20T00:01:18.794Z,0.60
2022-09-20T00:03:47.551Z,0.63
2022-09-20T00:06:17.149Z,0.60
2022-09-20T00:08:44.440Z,0.63
2022-09-20T00:11:17.655Z,0.70
2022-09-20T00:13:45.965Z,0.57
2022-09-20T00:16:16.114Z,0.60
2022-09-20T00:18:42.969Z,0.70
2022-09-20T00:21:17.234Z,0.67
2022-09-20T00:23:44.519Z,0.50
2022-09-20T00:26:11.652Z,0.90
2022-09-20T00:28:38.474Z,0.57
2022-09-20T00:31:05.769Z,0.70
2022-09-20T00:33:52.958Z,0.60
2022-09-20T00:36:19.818Z,0.50
2022-09-20T00:38:46.734Z,0.40
2022-09-20T00:41:13.533Z,0.40
2022-09-20T00:43:43.382Z,0.40
2022-09-20T00:46:42.597Z,0.40
2022-09-20T00:49:22.231Z,0.50
2022-09-20T00:52:00.540Z,0.50
2022-09-20T00:54:29.065Z,0.50
2022-09-20T00:56:55.967Z,0.50
2022-09-20T00:59:28.385Z,0.60
2022-09-20T01:02:12.301Z,0.47
2022-09-20T01:04:42.197Z,0.40
2022-09-20T01:07:13.254Z,0.50
2022-09-20T01:09:40.060Z,0.50
2022-09-20T01:12:18.326Z,0.40
2022-09-20T01:14:47.589Z,0.50
2022-09-20T01:17:15.449Z,0.80
2022-09-20T01:20:09.615Z,0.83
2022-09-20T01:22:55.390Z,0.80
2022-09-20T01:25:59.443Z,0.67
2022-09-20T01:28:27.914Z,0.80
2022-09-20T01:31:17.551Z,0.73
2022-09-20T01:34:00.659Z,0.70
2022-09-20T01:36:34.890Z,0.90
2022-09-20T01:39:37.591Z,0.60
2022-09-20T01:42:11.364Z,0.83
2022-09-20T01:45:00.768Z,0.60
2022-09-20T01:47:42.547Z,0.93
2022-09-20T01:50:21.046Z,0.90
2022-09-20T01:53:15.058Z,0.60
2022-09-20T01:55:50.802Z,0.60
2022-09-20T01:58:39.518Z,0.70
2022-09-20T02:01:44.073Z,0.50
2022-09-20T02:04:29.313Z,0.60
2022-09-20T02:07:36.542Z,0.60
2022-09-20T02:10:15.219Z,0.50
2022-09-20T02:12:52.482Z,0.60
2022-09-20T02:15:33.976Z,0.40
2022-09-20T02:18:31.211Z,0.50
2022-09-20T02:21:10.045Z,0.50
2022-09-20T02:23:48.612Z,0.50
2022-09-20T02:26:36.695Z,0.50
2022-09-20T02:29:45.223Z,0.40
2022-09-20T02:32:51.288Z,0.53
2022-09-20T02:35:23.915Z,0.67
2022-09-20T02:38:09.235Z,0.50
2022-09-20T02:40:58.435Z,0.50
2022-09-20T02:43:58.415Z,0.40
2022-09-20T02:46:48.194Z,0.50
2022-09-20T02:49:56.261Z,0.60
2022-09-20T02:52:43.262Z,0.40
2022-09-20T02:55:28.682Z,0.50
2022-09-20T02:58:28.044Z,0.47
2022-09-20T03:01:19.582Z,0.50
2022-09-20T03:04:05.290Z,0.50
2022-09-20T03:07:02.337Z,0.60
2022-09-20T03:09:35.631Z,0.70
2022-09-20T03:12:21.216Z,0.70
2022-09-20T03:15:14.377Z,0.60
2022-09-20T03:18:22.147Z,0.70
2022-09-20T03:21:08.403Z,0.50
2022-09-20T03:23:52.115Z,0.50
2022-09-20T03:26:47.380Z,0.60
2022-09-20T03:29:31.976Z,0.50
2022-09-20T03:32:16.061Z,0.60
2022-09-20T03:35:12.157Z,0.50
2022-09-20T03:37:47.896Z,0.70
2022-09-20T03:40:52.497Z,0.63
2022-09-20T03:43:40.475Z,0.60
2022-09-20T03:46:18.631Z,0.63
2022-09-20T03:48:45.515Z,0.60
2022-09-20T03:51:34.446Z,0.50
2022-09-20T03:54:27.617Z,0.73
2022-09-20T03:56:58.887Z,0.60
2022-09-20T03:59:43.893Z,0.60
2022-09-20T04:02:29.368Z,0.60
2022-09-20T04:05:01.046Z,0.80
2022-09-20T04:07:49.015Z,0.73
2022-09-20T04:10:44.254Z,0.80
2022-09-20T04:13:37.600Z,1.27
2022-09-20T04:16:37.884Z,0.60
2022-09-20T04:19:21.164Z,0.70
2022-09-20T04:21:57.693Z,0.80
2022-09-20T04:24:30.372Z,0.70
2022-09-20T04:27:19.485Z,1.53
2022-09-20T04:30:01.017Z,0.73
2022-09-20T04:32:42.777Z,0.53
2022-09-20T04:36:01.551Z,0.90
2022-09-20T04:38:29.274Z,0.97
2022-09-20T04:41:06.594Z,0.70
2022-09-20T04:43:51.196Z,0.80
2022-09-20T04:46:27.588Z,0.90
2022-09-20T04:49:19.100Z,0.70
2022-09-20T04:51:48.944Z,0.73
2022-09-20T04:54:36.628Z,0.70
2022-09-20T04:57:36.778Z,0.80
2022-09-20T05:00:12.206Z,0.70
2022-09-20T05:03:26.715Z,0.80
2022-09-20T05:06:11.312Z,0.90
2022-09-20T05:09:25.734Z,0.70
2022-09-20T05:12:24.001Z,0.70
2022-09-20T05:15:21.520Z,2.17
2022-09-20T05:18:07.058Z,2.20
2022-09-20T05:20:46.248Z,2.40
2022-09-20T05:23:25.292Z,1.10
2022-09-20T05:26:28.132Z,1.13
2022-09-20T05:29:24.662Z,4.53
2022-09-20T05:32:14.624Z,0.70
2022-09-20T05:35:03.429Z,4.03
2022-09-20T05:37:49.030Z,2.03
2022-09-20T05:40:34.239Z,2.70
2022-09-20T05:43:33.973Z,1.93
2022-09-20T05:46:14.131Z,2.10
2022-09-20T05:48:56.542Z,1.50
2022-09-20T05:51:29.499Z,1.03
2022-09-20T05:53:59.366Z,1.30
2022-09-20T05:56:39.750Z,1.13
2022-09-20T05:59:43.375Z,1.80
2022-09-20T06:02:24.623Z,2.70
2022-09-20T06:05:03.771Z,3.30
2022-09-20T06:07:52.092Z,2.10
2022-09-20T06:10:34.079Z,2.00
2022-09-20T06:13:15.401Z,2.03
2022-09-20T06:16:04.462Z,4.40
2022-09-20T06:19:02.934Z,3.93
2022-09-20T06:21:42.750Z,2.80
2022-09-20T06:24:29.418Z,2.40
2022-09-20T06:26:58.999Z,2.13
2022-09-20T06:29:35.363Z,1.70
2022-09-20T06:32:02.355Z,1.30
2022-09-20T06:34:29.451Z,1.60
2022-09-20T06:37:50.601Z,1.30
2022-09-20T06:40:50.970Z,1.20
2022-09-20T06:43:19.356Z,1.20
2022-09-20T06:45:47.150Z,1.53
2022-09-20T06:48:15.518Z,1.30
2022-09-20T06:50:45.779Z,1.80
2022-09-20T06:53:28.277Z,1.20
2022-09-20T06:55:55.454Z,0.80
2022-09-20T06:58:22.543Z,1.43
2022-09-20T07:00:49.452Z,1.67
2022-09-20T07:03:16.251Z,1.43
2022-09-20T07:05:43.088Z,1.37
2022-09-20T07:08:09.898Z,1.50
2022-09-20T07:10:36.730Z,1.30
2022-09-20T07:13:03.650Z,1.33
2022-09-20T07:15:33.188Z,0.90
2022-09-20T07:18:00.359Z,0.70
2022-09-20T07:20:27.982Z,0.73
2022-09-20T07:22:55.135Z,0.87
2022-09-20T07:25:22.570Z,0.80
2022-09-20T07:27:50.902Z,0.80
2022-09-20T07:30:20.174Z,0.60
2022-09-20T07:32:47.169Z,0.80
2022-09-20T07:35:14.198Z,0.70
2022-09-20T07:37:43.886Z,0.60
2022-09-20T07:40:11.742Z,0.50
2022-09-20T07:42:39.020Z,0.60
2022-09-20T07:45:07.704Z,0.80
2022-09-20T07:47:35.604Z,0.60
2022-09-20T07:50:03.809Z,0.50
2022-09-20T07:52:30.678Z,0.50
2022-09-20T07:54:57.642Z,0.60
2022-09-20T07:57:24.510Z,0.50
2022-09-20T07:59:51.462Z,0.60
2022-09-20T08:02:18.452Z,0.70
2022-09-20T08:04:45.366Z,0.40
2022-09-20T08:07:12.792Z,0.40
2022-09-20T08:09:39.689Z,0.50
2022-09-20T08:14:55.512Z,0.40
2022-09-20T08:17:22.309Z,0.40
2022-09-20T08:19:50.683Z,0.50
2022-09-20T08:22:17.754Z,0.50
2022-09-20T08:24:44.628Z,0.40
2022-09-20T08:27:13.102Z,0.50
2022-09-20T08:29:40.568Z,0.40
2022-09-20T08:32:07.372Z,0.47
2022-09-20T08:34:34.217Z,0.50
2022-09-20T08:37:01.015Z,0.40
2022-09-20T08:42:20.029Z,0.50
2022-09-20T08:44:58.806Z,0.50
2022-09-20T08:47:57.878Z,0.57
2022-09-20T08:50:26.936Z,0.50
2022-09-20T08:53:00.084Z,0.40
2022-09-20T08:55:36.363Z,0.40
2022-09-20T08:58:08.238Z,0.40
2022-09-20T09:00:37.264Z,0.40
2022-09-20T09:03:12.857Z,0.40
2022-09-20T09:05:54.916Z,0.50
2022-09-20T09:08:29.398Z,0.50
2022-09-20T09:10:59.430Z,0.40
2022-09-20T09:13:33.575Z,0.40
2022-09-20T09:16:12.196Z,0.40
2022-09-20T09:18:44.946Z,0.40
2022-09-20T09:21:22.204Z,0.53
2022-09-20T09:24:04.823Z,0.40
2022-09-20T09:26:40.107Z,0.40
2022-09-20T09:29:10.243Z,0.50
2022-09-20T09:31:38.577Z,0.40
2022-09-20T09:34:21.981Z,0.50
2022-09-20T09:36:48.794Z,0.50
2022-09-20T09:39:33.620Z,0.40
2022-09-20T09:42:01.153Z,0.40
2022-09-20T09:44:33.975Z,0.40
2022-09-20T09:47:02.004Z,0.50
2022-09-20T09:49:34.174Z,0.50
2022-09-20T09:52:33.214Z,0.50
2022-09-20T09:55:04.857Z,0.50
2022-09-20T09:57:43.229Z,0.40
2022-09-20T10:00:22.699Z,0.40
2022-09-20T10:03:07.788Z,0.40
2022-09-20T10:05:54.166Z,0.40
2022-09-20T10:08:39.592Z,0.60
2022-09-20T10:11:12.444Z,0.50
2022-09-20T10:13:40.793Z,0.40
2022-09-20T10:16:17.667Z,0.40
2022-09-20T10:19:22.504Z,0.40
2022-09-20T10:22:07.327Z,0.50
2022-09-20T10:25:04.447Z,0.50
2022-09-20T10:27:31.257Z,0.40
2022-09-20T10:30:12.207Z,0.40
2022-09-20T10:32:56.822Z,0.50
2022-09-20T10:35:26.671Z,0.50
2022-09-20T10:38:14.803Z,0.40
2022-09-20T10:41:25.751Z,0.40
2022-09-20T10:44:13.428Z,0.40
2022-09-20T10:46:53.065Z,0.53
2022-09-20T10:49:49.845Z,0.40
2022-09-20T10:52:23.418Z,0.40
2022-09-20T10:55:03.756Z,0.40
2022-09-20T10:57:51.802Z,0.40
2022-09-20T11:00:41.630Z,0.40
2022-09-20T11:03:30.250Z,0.40
2022-09-20T11:06:30.538Z,0.50
2022-09-20T11:09:02.376Z,0.40
2022-09-20T11:11:40.042Z,0.40
2022-09-20T11:14:20.114Z,0.50
2022-09-20T11:17:04.839Z,0.40
2022-09-20T11:19:44.792Z,0.50
2022-09-20T11:22:18.555Z,0.40
2022-09-20T11:24:48.356Z,0.40
2022-09-20T11:27:29.718Z,0.53
2022-09-20T11:30:03.140Z,0.50
2022-09-20T11:32:36.662Z,0.40
2022-09-20T11:35:14.735Z,0.47
2022-09-20T11:37:47.505Z,0.50
2022-09-20T11:40:29.861Z,0.50
2022-09-20T11:43:00.092Z,0.60
2022-09-20T11:45:28.859Z,0.40
2022-09-20T11:48:04.301Z,0.50
2022-09-20T11:51:04.554Z,0.50
2022-09-20T11:53:47.508Z,0.50
2022-09-20T11:56:25.728Z,0.50
2022-09-20T11:58:59.084Z,0.50
2022-09-20T12:01:42.803Z,0.50
2022-09-20T12:04:32.391Z,0.50
2022-09-20T12:07:09.790Z,0.50
2022-09-20T12:09:42.391Z,0.60
2022-09-20T12:12:33.461Z,0.50
2022-09-20T12:15:04.329Z,0.40
2022-09-20T12:17:57.498Z,0.60
2022-09-20T12:20:36.272Z,0.43
2022-09-20T12:23:43.367Z,0.50
2022-09-20T12:26:18.869Z,0.50
2022-09-20T12:28:51.138Z,0.50
2022-09-20T12:31:29.292Z,0.40
2022-09-20T12:34:11.790Z,0.50
2022-09-20T12:36:43.159Z,0.50
2022-09-20T12:39:16.266Z,0.40
2022-09-20T12:41:57.790Z,0.73
2022-09-20T12:44:49.410Z,0.63
2022-09-20T12:47:27.905Z,0.50
2022-09-20T12:50:16.146Z,0.50
2022-09-20T12:52:58.629Z,0.60
2022-09-20T12:55:28.201Z,0.50
2022-09-20T12:58:14.523Z,0.40
2022-09-20T13:01:14.519Z,0.60
2022-09-20T13:03:46.958Z,0.50
2022-09-20T13:06:19.677Z,0.60
2022-09-20T13:08:54.223Z,0.50
2022-09-20T13:11:25.017Z,0.40
2022-09-20T13:14:26.194Z,0.40
2022-09-20T13:16:54.949Z,0.40
2022-09-20T13:19:29.993Z,0.50
2022-09-20T13:21:59.866Z,0.40
2022-09-20T13:24:37.711Z,0.47
2022-09-20T13:27:30.543Z,0.50
2022-09-20T13:30:17.859Z,0.50
2022-09-20T13:32:45.306Z,0.40
2022-09-20T13:35:32.542Z,0.50
2022-09-20T13:38:07.923Z,0.40
2022-09-20T13:40:49.272Z,0.50
2022-09-20T13:43:40.003Z,0.50
2022-09-20T13:46:12.175Z,0.50
2022-09-20T13:48:39.503Z,0.50
2022-09-20T13:51:18.250Z,0.50
2022-09-20T13:53:46.801Z,0.43
2022-09-20T13:56:29.955Z,0.50
2022-09-20T13:58:59.771Z,0.50
2022-09-20T14:01:32.346Z,0.50
2022-09-20T14:04:05.707Z,0.50
2022-09-20T14:06:32.831Z,0.50
2022-09-20T14:09:07.076Z,0.50
2022-09-20T14:11:38.963Z,0.50
2022-09-20T14:14:08.055Z,0.47
2022-09-20T14:16:38.934Z,0.50
2022-09-20T14:19:09.880Z,0.50
2022-09-20T14:21:38.304Z,0.50
2022-09-20T14:24:26.056Z,0.50
2022-09-20T14:27:17.989Z,0.60
2022-09-20T14:29:54.882Z,0.50
2022-09-20T14:32:21.718Z,0.40
2022-09-20T14:35:02.271Z,0.50
2022-09-20T14:37:43.580Z,0.70
2022-09-20T14:40:30.407Z,0.50
2022-09-20T14:43:01.627Z,0.50
2022-09-20T14:45:40.498Z,0.50
2022-09-20T14:48:27.280Z,0.60
2022-09-20T14:51:16.368Z,0.50
2022-09-20T14:53:44.394Z,0.40
2022-09-20T14:56:13.355Z,0.47
2022-09-20T14:59:02.857Z,0.60
2022-09-20T15:01:29.735Z,0.60
2022-09-20T15:03:57.755Z,0.50
2022-09-20T15:06:25.112Z,0.47
2022-09-20T15:08:52.415Z,0.50
2022-09-20T15:11:20.466Z,0.50
2022-09-20T15:13:47.439Z,0.60
2022-09-20T15:16:17.609Z,0.40
2022-09-20T15:18:45.010Z,0.40
2022-09-20T15:21:12.210Z,0.50
2022-09-20T15:23:39.994Z,0.40
2022-09-20T15:26:07.741Z,0.40
2022-09-20T15:28:35.278Z,0.40
2022-09-20T15:31:02.258Z,0.40
2022-09-20T15:33:32.146Z,0.50
2022-09-20T15:36:01.988Z,0.50
2022-09-20T15:38:28.860Z,0.50
2022-09-20T15:40:55.838Z,0.40
2022-09-20T15:43:27.123Z,0.50
2022-09-20T15:46:03.038Z,0.50
2022-09-20T15:48:31.109Z,0.47
2022-09-20T15:51:01.834Z,0.40
2022-09-20T15:53:40.892Z,0.50
2022-09-20T15:56:27.524Z,0.50
2022-09-20T15:59:03.866Z,0.50
2022-09-20T16:01:33.025Z,0.50
2022-09-20T16:04:00.115Z,0.40
2022-09-20T16:06:27.144Z,0.50
2022-09-20T16:08:55.471Z,0.50
2022-09-20T16:11:23.255Z,0.50
2022-09-20T16:13:57.711Z,0.50
2022-09-20T16:16:26.113Z,0.60
2022-09-20T16:19:11.898Z,0.40
2022-09-20T16:21:40.613Z,0.40
2022-09-20T16:24:08.254Z,0.50
2022-09-20T16:26:36.175Z,0.50
2022-09-20T16:29:05.032Z,0.40
2022-09-20T16:31:34.844Z,0.50
2022-09-20T16:34:19.433Z,0.50
2022-09-20T16:36:48.952Z,0.50
2022-09-20T16:39:18.060Z,0.60
2022-09-20T16:41:47.854Z,0.50
2022-09-20T16:44:15.517Z,0.50
2022-09-20T16:46:42.441Z,0.50
2022-09-20T16:49:11.579Z,0.70
2022-09-20T16:51:40.715Z,0.60
2022-09-20T16:54:13.041Z,0.50
2022-09-20T16:56:42.245Z,0.40
2022-09-20T16:59:09.294Z,0.40
2022-09-20T17:01:37.103Z,0.60
2022-09-20T17:04:05.525Z,0.57
2022-09-20T17:06:34.493Z,0.50
2022-09-20T17:09:01.790Z,0.50
2022-09-20T17:11:31.703Z,0.63
2022-09-20T17:13:58.950Z,0.50
2022-09-20T17:16:37.672Z,0.70
2022-09-20T17:19:07.487Z,0.67
2022-09-20T17:21:38.718Z,0.57
2022-09-20T17:24:07.705Z,0.60
2022-09-20T17:26:38.335Z,1.03
2022-09-20T17:29:13.078Z,1.67
2022-09-20T17:31:42.699Z,0.73
2022-09-20T17:34:11.826Z,0.53
2022-09-20T17:36:44.355Z,0.60
2022-09-20T17:39:13.090Z,0.60
2022-09-20T17:41:45.018Z,0.80
2022-09-20T17:44:12.698Z,1.40
2022-09-20T17:46:41.617Z,1.77
2022-09-20T17:49:14.002Z,1.47
2022-09-20T17:51:43.240Z,1.20
2022-09-20T17:54:14.214Z,0.70
2022-09-20T17:56:47.145Z,1.00
2022-09-20T17:59:18.427Z,0.90
2022-09-20T18:01:49.360Z,0.80
2022-09-20T18:04:16.226Z,0.90
2022-09-20T18:06:48.753Z,0.73
2022-09-20T18:09:17.570Z,1.10
2022-09-20T18:11:50.108Z,1.30
2022-09-20T18:14:25.192Z,1.20
2022-09-20T18:16:53.503Z,1.43
2022-09-20T18:19:22.631Z,1.30
2022-09-20T18:21:50.043Z,1.30
2022-09-20T18:24:16.958Z,1.00
2022-09-20T18:26:44.587Z,1.10
2022-09-20T18:29:14.036Z,1.23
2022-09-20T18:31:54.324Z,1.00
2022-09-20T18:34:26.756Z,1.20
2022-09-20T18:36:56.656Z,0.83
2022-09-20T18:39:25.064Z,0.70
2022-09-20T18:41:53.120Z,1.07
2022-09-20T18:44:21.248Z,1.10
2022-09-20T18:46:48.915Z,1.10
2022-09-20T18:49:17.030Z,1.03
2022-09-20T18:51:44.607Z,1.10
2022-09-20T18:54:12.020Z,1.20
2022-09-20T18:56:43.562Z,1.10
2022-09-20T18:59:15.140Z,0.90
2022-09-20T19:01:54.012Z,1.20
2022-09-20T19:04:27.127Z,0.90
2022-09-20T19:07:27.092Z,0.90
2022-09-20T19:10:06.061Z,0.80
2022-09-20T19:12:52.365Z,0.83
2022-09-20T19:15:37.802Z,0.80
2022-09-20T19:18:13.670Z,0.70
2022-09-20T19:20:52.762Z,1.37
2022-09-20T19:23:44.363Z,2.00
2022-09-20T19:26:21.803Z,2.10
2022-09-20T19:28:57.562Z,2.70
2022-09-20T19:31:27.768Z,3.80
2022-09-20T19:33:56.815Z,2.63
2022-09-20T19:36:29.846Z,1.87
2022-09-20T19:39:30.791Z,1.43
2022-09-20T19:42:09.630Z,4.00
2022-09-20T19:44:50.396Z,2.10
2022-09-20T19:47:56.537Z,2.00
2022-09-20T19:50:39.451Z,2.50
2022-09-20T19:53:06.668Z,2.20
2022-09-20T19:55:37.927Z,3.00
2022-09-20T19:58:05.218Z,1.03
2022-09-20T20:00:32.412Z,0.63
2022-09-20T20:02:59.553Z,0.70
2022-09-20T20:05:27.804Z,0.60
2022-09-20T20:08:15.462Z,0.80
2022-09-20T20:11:01.675Z,0.60
2022-09-20T20:14:03.303Z,0.60
2022-09-20T20:16:53.217Z,0.70
2022-09-20T20:20:05.461Z,0.60
2022-09-20T20:22:38.306Z,0.50
2022-09-20T20:25:05.721Z,0.60
2022-09-20T20:27:32.750Z,0.60
2022-09-20T20:29:59.797Z,1.10
2022-09-20T20:32:26.638Z,0.60
2022-09-20T20:34:53.418Z,0.70
2022-09-20T20:37:23.969Z,0.70
2022-09-20T20:39:50.824Z,0.70
2022-09-20T20:42:17.683Z,0.60
2022-09-20T20:44:45.411Z,0.70
2022-09-20T20:47:12.218Z,0.57
2022-09-20T20:49:39.038Z,0.50
2022-09-20T20:52:05.981Z,0.60
2022-09-20T20:54:33.200Z,0.60
2022-09-20T20:57:00.138Z,0.60
2022-09-20T20:59:27.071Z,0.63
2022-09-20T21:01:53.950Z,0.80
2022-09-20T21:04:21.802Z,0.60
2022-09-20T21:06:50.417Z,0.90
2022-09-20T21:09:17.359Z,0.90
2022-09-20T21:11:44.484Z,0.90
2022-09-20T21:14:12.701Z,0.53
2022-09-20T21:16:45.136Z,0.80
2022-09-20T21:19:15.686Z,1.00
2022-09-20T21:21:44.911Z,0.90
2022-09-20T21:24:15.259Z,1.03
2022-09-20T21:26:42.114Z,0.60
2022-09-20T21:29:11.536Z,0.77
2022-09-20T21:31:40.581Z,0.80
2022-09-20T21:34:08.954Z,0.57
2022-09-20T21:36:37.335Z,0.80
2022-09-20T21:39:05.028Z,0.80
2022-09-20T21:41:34.796Z,1.00
2022-09-20T21:44:03.817Z,1.07
2022-09-20T21:46:36.074Z,1.13
2022-09-20T21:49:05.721Z,1.40
2022-09-20T21:51:33.138Z,1.00
2022-09-20T21:54:01.737Z,0.70
2022-09-20T21:56:39.091Z,0.60
2022-09-20T21:59:07.135Z,0.77
2022-09-20T22:01:36.881Z,0.50
2022-09-20T22:04:11.677Z,0.63
2022-09-20T22:06:40.632Z,0.40
2022-09-20T22:09:09.347Z,0.50
2022-09-20T22:11:39.245Z,0.60
2022-09-20T22:14:07.511Z,0.60
2022-09-20T22:16:37.835Z,0.60
2022-09-20T22:19:05.813Z,0.53
2022-09-20T22:21:38.405Z,0.50
2022-09-20T22:24:07.908Z,0.70
2022-09-20T22:26:38.842Z,0.50
2022-09-20T22:29:09.290Z,0.57
2022-09-20T22:31:41.346Z,0.50
2022-09-20T22:34:08.195Z,0.90
2022-09-20T22:36:37.327Z,0.50
2022-09-20T22:39:07.398Z,0.50
2022-09-20T22:41:34.889Z,0.60
2022-09-20T22:44:02.135Z,0.70
2022-09-20T22:46:30.324Z,0.60
2022-09-20T22:48:57.226Z,0.63
2022-09-20T22:51:26.787Z,0.50
2022-09-20T22:53:53.883Z,0.50
2022-09-20T22:56:26.490Z,0.60
2022-09-20T22:59:00.181Z,0.60
2022-09-20T23:01:30.515Z,0.50
2022-09-20T23:04:04.322Z,0.50
2022-09-20T23:06:39.910Z,0.50
2022-09-20T23:09:09.478Z,0.70
2022-09-20T23:11:37.326Z,0.57
2022-09-20T23:14:05.970Z,0.50
2022-09-20T23:16:35.540Z,0.50
2022-09-20T23:19:03.937Z,0.60
2022-09-20T23:21:31.316Z,0.60
2022-09-20T23:24:00.959Z,0.60
2022-09-20T23:26:30.446Z,0.50
2022-09-20T23:29:09.310Z,0.80
2022-09-20T23:31:37.706Z,0.50
2022-09-20T23:34:06.742Z,0.50
2022-09-20T23:36:36.311Z,0.50
2022-09-20T23:39:03.313Z,0.50
2022-09-20T23:41:30.112Z,0.50
2022-09-20T23:43:57.388Z,0.50
2022-09-20T23:46:26.192Z,0.50
2022-09-20T23:48:53.838Z,0.60
2022-09-20T23:51:25.320Z,0.40
2022-09-20T23:53:53.170Z,0.53
2022-09-20T23:56:21.472Z,0.57
2022-09-20T23:58:48.717Z,0.50
